Time;durP1;ratioP1;P1;durP2;ratioP2;P2;SDS_P1;SDS_P2;PMS_P1;PMS_P2;Temp;Humidity;BMP_temperature;BMP_pressure;BME280_temperature;BME280_humidity;BME280_pressure;Samples;Min_cycle;Max_cycle;Signal;HPM_P1;HPM_P2
2022/12/18 00:02:05;;;;;;;28.20;10.00;;;;;;;-7.87;90.42;101912.28;5049649;28;20511;-65
2022/12/18 00:04:32;;;;;;;26.40;9.67;;;;;;;-7.87;90.24;101893.38;5046355;28;21020;-65
2022/12/18 00:06:58;;;;;;;15.27;6.03;;;;;;;-7.74;90.32;101912.88;5046657;28;20536;-66
2022/12/18 00:09:24;;;;;;;26.03;10.57;;;;;;;-7.64;89.76;101912.22;5049444;28;20548;-68
2022/12/18 00:12:05;;;;;;;22.53;9.00;;;;;;;-7.70;89.54;101907.31;5044822;28;21075;-69
2022/12/18 00:14:43;;;;;;;21.70;8.53;;;;;;;-7.80;89.61;101904.50;5049540;28;20488;-66
2022/12/18 00:17:12;;;;;;;21.90;10.00;;;;;;;-7.86;89.69;101911.53;5037892;28;20465;-66
2022/12/18 00:19:38;;;;;;;32.03;10.17;;;;;;;-7.92;89.21;101905.72;5048820;28;20540;-66
2022/12/18 00:22:06;;;;;;;28.03;9.97;;;;;;;-8.03;89.17;101912.22;5047820;28;20488;-66
2022/12/18 00:24:32;;;;;;;32.07;10.97;;;;;;;-8.17;89.18;101907.22;5048940;28;20560;-66
2022/12/18 00:26:58;;;;;;;46.47;18.20;;;;;;;-8.11;89.65;101906.97;5048369;28;20507;-66
2022/12/18 00:29:25;;;;;;;49.57;19.80;;;;;;;-8.17;89.75;101908.88;5042508;28;20542;-66
2022/12/18 00:31:51;;;;;;;26.93;11.07;;;;;;;-8.28;89.41;101898.34;5049207;28;20544;-64
2022/12/18 00:34:17;;;;;;;37.73;11.27;;;;;;;-8.45;89.19;101907.47;5046912;28;21343;-67
2022/12/18 00:36:43;;;;;;;34.60;10.13;;;;;;;-8.54;89.43;101915.06;5038380;28;20454;-68
2022/12/18 00:39:10;;;;;;;28.00;9.17;;;;;;;-8.66;89.48;101912.03;5042811;28;20879;-66
2022/12/18 00:44:22;;;;;;;24.37;9.40;;;;;;;-8.81;89.08;101919.63;5048712;28;20484;-68
2022/12/18 00:46:48;;;;;;;31.77;10.73;;;;;;;-8.87;89.45;101915.63;5044152;28;20465;-64
2022/12/18 00:49:17;;;;;;;29.67;9.87;;;;;;;-8.67;90.39;101924.72;5043446;28;20535;-68
2022/12/18 00:51:45;;;;;;;26.20;9.17;;;;;;;-8.55;89.79;101924.44;5029842;28;20514;-66
2022/12/18 00:54:11;;;;;;;37.57;11.43;;;;;;;-8.76;88.73;101923.66;5045934;28;20568;-66
2022/12/18 00:56:38;;;;;;;27.10;10.43;;;;;;;-8.79;89.55;101918.19;5046653;28;20544;-67
2022/12/18 00:59:14;;;;;;;28.23;10.80;;;;;;;-8.87;89.10;101915.63;5045606;28;20984;-67
2022/12/18 01:01:40;;;;;;;32.97;9.83;;;;;;;-8.82;89.59;101920.38;5026895;28;20552;-67
2022/12/18 01:04:07;;;;;;;32.17;9.60;;;;;;;-8.91;89.41;101915.13;5048944;28;20484;-70
2022/12/18 01:06:33;;;;;;;27.53;10.90;;;;;;;-9.07;89.14;101901.28;5046070;28;20549;-67
2022/12/18 01:09:00;;;;;;;28.53;11.40;;;;;;;-9.06;89.35;101911.72;5044747;28;20453;-66
2022/12/18 01:11:26;;;;;;;31.17;10.40;;;;;;;-9.04;89.64;101930.78;5042103;28;20576;-68
2022/12/18 01:13:53;;;;;;;30.03;10.53;;;;;;;-9.06;89.46;101924.56;5040454;28;21066;-66
2022/12/18 01:16:20;;;;;;;32.93;11.00;;;;;;;-9.15;88.88;101927.72;5036067;28;20961;-66
2022/12/18 01:18:47;;;;;;;29.27;9.77;;;;;;;-9.26;89.13;101929.94;5044742;28;20453;-69
2022/12/18 01:21:16;;;;;;;30.47;11.13;;;;;;;-9.37;89.03;101924.31;5049200;28;20464;-68
2022/12/18 01:23:45;;;;;;;35.43;11.70;;;;;;;-9.48;88.77;101929.13;5027740;28;20543;-66
2022/12/18 01:26:14;;;;;;;29.87;10.27;;;;;;;-9.60;89.01;101927.69;5044762;28;20468;-67
2022/12/18 01:28:41;;;;;;;27.10;10.50;;;;;;;-9.37;90.23;101934.56;5047656;28;20453;-66
2022/12/18 01:31:22;;;;;;;48.90;19.30;;;;;;;-8.94;90.59;101951.59;5048901;28;20528;-67
2022/12/18 01:33:49;;;;;;;47.00;19.73;;;;;;;-9.16;89.47;101957.59;5046471;28;20991;-67
2022/12/18 01:36:25;;;;;;;54.50;20.70;;;;;;;-9.29;88.77;101949.19;5048860;28;20532;-68
2022/12/18 01:38:52;;;;;;;60.83;22.97;;;;;;;-9.14;89.65;101947.50;5048316;28;20540;-67
2022/12/18 01:41:21;;;;;;;49.93;21.70;;;;;;;-9.24;89.29;101951.53;5032359;28;20576;-67
2022/12/18 01:43:54;;;;;;;48.03;19.93;;;;;;;-9.46;88.42;101944.69;5043021;28;20999;-67
2022/12/18 01:46:25;;;;;;;51.80;18.83;;;;;;;-9.62;88.38;101951.28;5048626;28;20507;-67
2022/12/18 01:49:01;;;;;;;52.13;19.63;;;;;;;-9.77;88.87;101955.53;5047468;28;20465;-66
2022/12/18 01:51:30;;;;;;;34.10;10.30;;;;;;;-9.87;88.76;101947.50;5047409;28;20547;-67
2022/12/18 01:53:58;;;;;;;30.40;10.47;;;;;;;-10.03;88.60;101933.59;5047086;28;20481;-68
2022/12/18 01:56:25;;;;;;;30.33;11.30;;;;;;;-10.05;88.49;101938.53;5048857;28;20481;-68
2022/12/18 01:59:01;;;;;;;51.97;17.33;;;;;;;-10.07;89.10;101945.13;5047444;28;20531;-66
2022/12/18 02:01:30;;;;;;;45.97;19.27;;;;;;;-9.81;89.85;101945.66;5046088;28;20481;-66
2022/12/18 02:04:21;;;;;;;48.23;20.77;;;;;;;-9.83;89.36;101947.13;5028492;28;20825;-65
2022/12/18 02:06:54;;;;;;;54.47;21.50;;;;;;;-9.80;89.87;101939.81;5041931;28;20458;-65
2022/12/18 02:09:27;;;;;;;50.57;20.70;;;;;;;-9.78;89.16;101937.41;5043391;28;20536;-65
2022/12/18 02:12:02;;;;;;;51.10;20.87;;;;;;;-9.76;89.23;101938.50;5043751;28;20489;-66
2022/12/18 02:14:45;;;;;;;52.10;21.70;;;;;;;-9.81;88.79;101946.56;5047652;28;20556;-66
2022/12/18 02:17:18;;;;;;;44.23;16.87;;;;;;;-9.91;88.72;101941.09;5046454;28;20552;-67
2022/12/18 02:19:58;;;;;;;51.10;20.43;;;;;;;-10.04;88.40;101931.75;5044313;28;20493;-66
2022/12/18 02:22:29;;;;;;;52.00;21.33;;;;;;;-10.08;88.57;101927.00;5027457;28;20489;-65
2022/12/18 02:25:24;;;;;;;44.03;19.20;;;;;;;-10.16;88.68;101921.91;5048077;28;20956;-65
2022/12/18 02:27:54;;;;;;;43.30;18.50;;;;;;;-10.24;88.61;101927.78;5046205;28;20544;-65
2022/12/18 02:30:22;;;;;;;26.40;10.63;;;;;;;-10.31;88.50;101921.78;5044578;28;21102;-68
2022/12/18 02:32:53;;;;;;;37.70;15.70;;;;;;;-10.34;88.75;101917.19;5049611;28;20489;-65
2022/12/18 02:35:24;;;;;;;51.23;20.23;;;;;;;-10.39;88.78;101913.19;5051625;28;20496;-66
2022/12/18 02:37:54;;;;;;;42.17;17.93;;;;;;;-10.46;88.33;101915.72;5046013;28;20893;-65
2022/12/18 02:40:23;;;;;;;45.03;18.30;;;;;;;-10.53;88.20;101908.94;5030489;28;20492;-65
2022/12/18 02:42:49;;;;;;;44.57;19.53;;;;;;;-10.58;88.15;101909.13;5044273;28;20551;-65
2022/12/18 02:45:16;;;;;;;49.07;18.50;;;;;;;-10.59;88.51;101913.31;5044876;28;20984;-66
2022/12/18 02:47:47;;;;;;;44.37;18.53;;;;;;;-10.64;88.73;101914.41;5050624;28;20964;-65
2022/12/18 02:50:30;;;;;;;45.73;18.50;;;;;;;-10.60;88.53;101924.28;5051328;28;20537;-68
2022/12/18 02:53:14;;;;;;;45.87;18.47;;;;;;;-10.57;88.65;101921.19;5045762;28;20484;-65
2022/12/18 02:56:14;;;;;;;40.37;17.37;;;;;;;-10.42;89.38;101928.13;5050706;28;20482;-66
2022/12/18 02:59:04;;;;;;;44.53;19.17;;;;;;;-10.29;88.32;101931.47;5042123;28;20548;-66
2022/12/18 03:01:58;;;;;;;43.10;18.23;;;;;;;-10.29;88.27;101923.78;5044643;28;20453;-68
2022/12/18 03:04:33;;;;;;;40.87;17.43;;;;;;;-10.25;88.10;101922.50;5040754;28;20501;-68
2022/12/18 03:07:05;;;;;;;42.63;17.63;;;;;;;-10.23;88.91;101921.03;5043547;28;20453;-65
2022/12/18 03:09:38;;;;;;;36.63;15.50;;;;;;;-10.08;88.65;101929.56;5026923;28;20485;-66
2022/12/18 03:12:23;;;;;;;36.13;16.43;;;;;;;-10.18;88.28;101931.06;5041549;28;20462;-66
2022/12/18 03:15:13;;;;;;;35.67;17.17;;;;;;;-10.26;87.99;101936.94;5048912;28;20514;-68
2022/12/18 03:17:50;;;;;;;36.53;17.23;;;;;;;-10.28;87.84;101935.84;5043245;28;20497;-67
2022/12/18 03:20:21;;;;;;;33.83;15.93;;;;;;;-10.40;87.56;101928.34;5048438;28;20515;-66
2022/12/18 03:22:54;;;;;;;30.87;13.67;;;;;;;-10.47;87.94;101929.22;5045813;28;20472;-66
2022/12/18 03:25:22;;;;;;;37.00;15.67;;;;;;;-10.58;87.75;101930.50;5045506;28;20514;-65
2022/12/18 03:27:54;;;;;;;33.13;16.50;;;;;;;-10.61;87.90;101919.91;5046262;28;20464;-67
2022/12/18 03:30:24;;;;;;;32.17;13.80;;;;;;;-10.54;88.17;101926.69;5048925;28;21052;-65
2022/12/18 03:33:06;;;;;;;37.80;15.97;;;;;;;-10.55;87.87;101930.88;5048765;28;20564;-66
2022/12/18 03:35:41;;;;;;;36.17;16.20;;;;;;;-10.60;87.87;101925.94;5043874;28;20493;-66
2022/12/18 03:38:08;;;;;;;36.77;16.80;;;;;;;-10.66;87.68;101920.09;5036262;28;20546;-68
2022/12/18 03:40:50;;;;;;;37.23;17.33;;;;;;;-10.72;87.68;101914.22;5042176;28;21069;-66
2022/12/18 03:43:39;;;;;;;37.70;16.93;;;;;;;-10.84;87.47;101923.88;5047955;28;20836;-67
2022/12/18 03:46:25;;;;;;;35.43;16.50;;;;;;;-10.79;87.81;101927.94;5040331;28;20524;-66
2022/12/18 03:48:59;;;;;;;35.97;16.13;;;;;;;-10.74;88.04;101908.03;5043721;28;20550;-66
2022/12/18 03:51:43;;;;;;;34.97;16.30;;;;;;;-10.65;88.04;101915.16;5049724;28;20472;-66
2022/12/18 03:54:11;;;;;;;35.00;16.53;;;;;;;-10.62;87.58;101918.06;5040522;28;20486;-66
2022/12/18 03:56:47;;;;;;;37.67;17.43;;;;;;;-10.50;87.70;101918.63;5047651;28;20453;-67
2022/12/18 03:59:16;;;;;;;33.57;16.33;;;;;;;-10.41;87.85;101924.84;5050613;28;20488;-65
2022/12/18 04:01:47;;;;;;;36.70;17.83;;;;;;;-10.43;88.27;101913.50;5048142;28;20465;-69
2022/12/18 04:04:16;;;;;;;35.40;16.07;;;;;;;-10.50;87.81;101908.38;5045916;28;20473;-66
2022/12/18 04:06:45;;;;;;;35.80;15.93;;;;;;;-10.61;87.59;101912.22;5027706;28;20561;-67
2022/12/18 04:09:11;;;;;;;33.53;15.97;;;;;;;-10.75;87.36;101904.53;5045223;28;20537;-66
2022/12/18 04:11:40;;;;;;;32.20;16.30;;;;;;;-10.86;87.02;101909.97;5048046;28;20545;-66
2022/12/18 04:14:06;;;;;;;29.93;13.87;;;;;;;-10.94;87.82;101897.91;5039744;28;20573;-68
2022/12/18 04:16:36;;;;;;;35.80;15.37;;;;;;;-11.00;87.57;101899.72;5046102;28;20461;-66
2022/12/18 04:19:02;;;;;;;35.37;16.13;;;;;;;-11.01;87.54;101908.13;5036203;28;20527;-63
2022/12/18 04:21:29;;;;;;;32.27;15.43;;;;;;;-11.08;87.33;101909.03;5043917;28;20531;-68
2022/12/18 04:23:55;;;;;;;32.77;13.63;;;;;;;-11.20;87.60;101882.88;5048234;28;20897;-67
2022/12/18 04:26:22;;;;;;;32.83;15.50;;;;;;;-10.99;88.46;101907.59;5041212;28;20960;-66
2022/12/18 04:28:48;;;;;;;30.37;14.97;;;;;;;-10.78;88.73;101905.09;5043216;28;20523;-66
2022/12/18 04:31:14;;;;;;;38.92;16.88;;;;;;;-10.87;87.67;101906.50;5048887;28;20928;-66
2022/12/18 04:33:41;;;;;;;30.23;15.33;;;;;;;-10.95;87.89;101899.56;5044241;28;20317;-67
2022/12/18 04:36:08;;;;;;;36.40;16.13;;;;;;;-10.96;87.71;101901.94;5044172;28;20461;-66
2022/12/18 04:38:34;;;;;;;31.03;15.33;;;;;;;-10.96;88.21;101896.81;5049497;28;20575;-67
2022/12/18 04:41:01;;;;;;;37.70;15.90;;;;;;;-10.84;88.49;101900.84;5032251;28;20553;-66
2022/12/18 04:43:27;;;;;;;34.90;15.60;;;;;;;-10.77;88.50;101893.22;5046853;28;20469;-64
2022/12/18 04:45:53;;;;;;;32.57;14.37;;;;;;;-10.82;88.21;101902.84;5047645;28;20473;-67
2022/12/18 04:48:20;;;;;;;35.13;14.70;;;;;;;-10.83;87.99;101905.22;5036637;28;20903;-67
2022/12/18 04:50:47;;;;;;;33.03;15.57;;;;;;;-10.78;88.34;101910.22;5045746;28;20519;-67
2022/12/18 04:53:14;;;;;;;35.33;16.27;;;;;;;-10.68;88.22;101913.88;5047409;28;20480;-66
2022/12/18 04:55:40;;;;;;;33.13;15.27;;;;;;;-10.56;88.79;101915.34;5033558;28;20962;-65
2022/12/18 04:58:06;;;;;;;27.57;13.27;;;;;;;-10.58;87.61;101910.03;5048990;28;20457;-65
2022/12/18 05:00:33;;;;;;;32.40;14.97;;;;;;;-10.60;87.37;101915.69;5047064;28;20458;-65
2022/12/18 05:03:02;;;;;;;30.33;13.77;;;;;;;-10.62;87.98;101909.47;5048579;28;20535;-65
2022/12/18 05:05:28;;;;;;;32.67;14.80;;;;;;;-10.68;87.75;101914.78;5043058;28;20511;-65
2022/12/18 05:07:55;;;;;;;32.67;14.27;;;;;;;-10.65;87.73;101915.16;5048441;28;21789;-65
2022/12/18 05:10:21;;;;;;;31.67;14.83;;;;;;;-10.76;87.44;101918.97;5049085;28;20540;-65
2022/12/18 05:12:59;;;;;;;34.00;16.00;;;;;;;-10.83;87.51;101918.94;5072209;23;20557;-67
2022/12/18 05:15:28;;;;;;;28.03;13.83;;;;;;;-10.96;87.27;101907.03;5028670;28;20483;-67
2022/12/18 05:17:56;;;;;;;30.33;14.67;;;;;;;-11.01;87.22;101924.38;5047137;28;20543;-67
2022/12/18 05:20:22;;;;;;;30.43;15.30;;;;;;;-11.09;87.15;101922.53;5042336;28;20545;-67
2022/12/18 05:22:49;;;;;;;28.27;12.90;;;;;;;-11.15;87.57;101921.78;5040492;28;20912;-67
2022/12/18 05:25:15;;;;;;;27.70;13.43;;;;;;;-11.16;87.74;101927.63;5030217;28;20541;-68
2022/12/18 05:27:41;;;;;;;31.57;15.30;;;;;;;-11.14;87.82;101918.50;5040834;28;20552;-67
2022/12/18 05:30:09;;;;;;;28.40;14.87;;;;;;;-11.04;88.16;101920.53;5041310;28;20461;-67
2022/12/18 05:32:35;;;;;;;28.23;14.13;;;;;;;-10.96;88.58;101913.06;5037943;28;20458;-66
2022/12/18 05:35:02;;;;;;;32.13;15.57;;;;;;;-10.90;88.57;101895.91;5037552;28;20485;-67
2022/12/18 05:37:29;;;;;;;29.37;14.10;;;;;;;-10.55;88.52;101905.28;5026609;28;20453;-67
2022/12/18 05:39:55;;;;;;;28.80;14.57;;;;;;;-10.36;89.03;101908.41;5041508;28;20471;-66
2022/12/18 05:42:21;;;;;;;29.83;15.60;;;;;;;-10.34;88.30;101911.16;5048667;28;20493;-67
2022/12/18 05:44:48;;;;;;;30.03;15.37;;;;;;;-10.30;88.65;101904.03;5042265;28;20548;-67
2022/12/18 05:47:14;;;;;;;38.40;17.13;;;;;;;-10.05;89.04;101912.00;5041646;28;21071;-67
2022/12/18 05:49:40;;;;;;;40.57;16.50;;;;;;;-9.89;89.63;101902.84;5041382;28;20489;-67
2022/12/18 05:52:06;;;;;;;74.07;18.00;;;;;;;-9.91;89.28;101894.06;5036486;28;20465;-67
2022/12/18 05:54:33;;;;;;;56.00;18.10;;;;;;;-9.97;89.26;101870.31;5044817;28;20520;-67
2022/12/18 05:56:59;;;;;;;34.70;17.00;;;;;;;-10.04;88.40;101893.34;5042885;28;20544;-67
2022/12/18 05:59:26;;;;;;;33.03;16.87;;;;;;;-10.20;87.94;101901.78;5029947;28;20497;-66
2022/12/18 06:01:52;;;;;;;36.20;17.20;;;;;;;-10.36;87.99;101902.38;5037579;28;20532;-67
2022/12/18 06:04:18;;;;;;;29.60;14.43;;;;;;;-10.56;87.63;101906.00;5042765;28;20520;-68
2022/12/18 06:06:45;;;;;;;36.23;16.97;;;;;;;-10.65;87.63;101916.81;5039892;28;20531;-67
2022/12/18 06:09:11;;;;;;;36.93;15.77;;;;;;;-10.65;88.42;101920.28;5053651;28;20480;-67
2022/12/18 06:11:38;;;;;;;28.13;14.37;;;;;;;-10.75;88.43;101919.91;5031178;28;20454;-67
2022/12/18 06:14:06;;;;;;;28.57;14.27;;;;;;;-10.69;88.54;101927.41;5045145;28;20583;-67
2022/12/18 06:16:32;;;;;;;29.40;14.73;;;;;;;-10.77;87.98;101918.78;5044998;28;20460;-66
2022/12/18 06:19:01;;;;;;;29.70;15.33;;;;;;;-10.90;87.95;101926.59;5046468;28;20536;-67
2022/12/18 06:21:28;;;;;;;32.37;15.40;;;;;;;-10.97;87.69;101920.56;5045430;28;20909;-67
2022/12/18 06:23:55;;;;;;;33.67;15.53;;;;;;;-11.05;87.37;101929.84;5043775;28;20481;-67
2022/12/18 06:26:22;;;;;;;35.93;15.50;;;;;;;-11.12;87.81;101928.19;5044057;28;20540;-67
2022/12/18 06:28:53;;;;;;;31.30;15.70;;;;;;;-10.94;88.63;101938.84;5045008;28;20519;-67
2022/12/18 06:31:19;;;;;;;32.17;16.10;;;;;;;-10.96;88.27;101930.06;5039366;28;20714;-67
2022/12/18 06:33:46;;;;;;;33.50;15.63;;;;;;;-10.69;88.56;101942.75;5044171;28;20513;-67
2022/12/18 06:36:13;;;;;;;25.80;13.43;;;;;;;-10.78;88.58;101938.34;5050762;28;20507;-67
2022/12/18 06:38:42;;;;;;;32.13;14.93;;;;;;;-10.66;88.48;101941.47;5047776;28;20462;-67
2022/12/18 06:41:14;;;;;;;36.17;16.53;;;;;;;-10.65;88.36;101956.09;5046083;28;20804;-67
2022/12/18 06:43:41;;;;;;;31.10;15.03;;;;;;;-10.71;88.16;101952.81;5053311;28;20564;-67
2022/12/18 06:46:08;;;;;;;31.73;15.10;;;;;;;-10.73;87.97;101956.81;5050275;28;20453;-67
2022/12/18 06:48:35;;;;;;;30.43;14.77;;;;;;;-10.74;87.75;101956.63;5046459;28;20493;-67
2022/12/18 06:51:01;;;;;;;30.50;15.67;;;;;;;-10.78;88.13;101957.91;5049283;28;20549;-67
2022/12/18 06:53:28;;;;;;;25.57;13.60;;;;;;;-10.84;87.96;101952.94;5042409;28;20890;-67
2022/12/18 06:56:06;;;;;;;33.13;15.40;;;;;;;-10.79;87.49;101958.63;5030167;28;20547;-66
2022/12/18 06:58:36;;;;;;;34.20;15.73;;;;;;;-10.88;87.42;101955.84;5026217;28;20462;-67
2022/12/18 07:01:05;;;;;;;32.33;15.77;;;;;;;-11.02;86.89;101952.34;5036304;28;20540;-67
2022/12/18 07:03:32;;;;;;;27.50;14.93;;;;;;;-10.99;87.61;101968.97;5035581;28;20633;-67
2022/12/18 07:05:58;;;;;;;31.77;16.07;;;;;;;-10.91;88.03;101958.03;5042811;28;20544;-67
2022/12/18 07:08:24;;;;;;;32.45;15.93;;;;;;;-10.91;88.17;101955.47;5044863;28;20540;-67
2022/12/18 07:10:51;;;;;;;33.93;15.77;;;;;;;-10.60;89.25;101957.56;5038366;28;20206;-67
2022/12/18 07:13:22;;;;;;;38.10;16.83;;;;;;;-10.54;89.34;101952.28;5040092;28;20542;-66
2022/12/18 07:15:48;;;;;;;56.63;19.40;;;;;;;-10.34;89.65;101958.16;5043016;28;20885;-66
2022/12/18 07:18:15;;;;;;;115.40;21.43;;;;;;;-10.12;89.98;101956.47;5035736;28;21025;-66
2022/12/18 07:20:41;;;;;;;45.87;19.53;;;;;;;-9.95;89.69;101956.84;5040672;28;20461;-66
2022/12/18 07:23:07;;;;;;;50.67;20.70;;;;;;;-9.78;90.27;101961.41;5040001;28;20528;-67
2022/12/18 07:25:37;;;;;;;45.30;20.73;;;;;;;-9.71;89.79;101973.28;5039242;28;20903;-67
2022/12/18 07:28:04;;;;;;;53.23;21.47;;;;;;;-9.61;90.04;101953.13;5039053;28;20462;-67
2022/12/18 07:30:30;;;;;;;53.30;20.80;;;;;;;-9.59;89.69;101942.34;5040332;28;20867;-67
2022/12/18 07:32:56;;;;;;;54.23;19.73;;;;;;;-9.57;89.62;101956.25;5041051;28;20457;-67
2022/12/18 07:35:23;;;;;;;71.63;23.27;;;;;;;-9.59;89.53;101937.22;5033709;28;20746;-68
2022/12/18 07:37:51;;;;;;;64.27;23.07;;;;;;;-9.45;89.29;101949.06;5037372;28;20462;-67
2022/12/18 07:40:17;;;;;;;66.80;23.30;;;;;;;-9.51;88.97;101950.91;5038508;28;20957;-67
2022/12/18 07:42:43;;;;;;;82.77;21.80;;;;;;;-9.55;89.10;101952.22;5039474;28;20953;-67
2022/12/18 07:45:10;;;;;;;69.43;22.67;;;;;;;-9.53;89.25;101954.97;5044342;28;20507;-67
2022/12/18 07:47:37;;;;;;;70.17;23.60;;;;;;;-9.56;89.22;101941.78;5031535;28;20540;-67
2022/12/18 07:50:05;;;;;;;151.43;25.83;;;;;;;-9.59;89.24;101962.84;5036310;28;20876;-67
2022/12/18 07:52:31;;;;;;;67.20;24.50;;;;;;;-9.56;89.01;101983.72;5046282;28;20512;-67
2022/12/18 07:54:58;;;;;;;56.77;23.20;;;;;;;-9.63;89.17;101993.94;5043528;28;20985;-68
2022/12/18 07:57:24;;;;;;;53.47;22.60;;;;;;;-9.71;89.14;101987.00;5048425;28;20465;-67
2022/12/18 08:00:12;;;;;;;56.53;23.47;;;;;;;-9.62;90.06;101987.19;5042161;28;20450;-67
2022/12/18 08:02:38;;;;;;;54.43;21.60;;;;;;;-9.50;89.65;101992.13;5046986;28;20981;-67
2022/12/18 08:05:05;;;;;;;70.13;24.57;;;;;;;-9.46;89.83;101998.53;5036634;28;20517;-67
2022/12/18 08:07:32;;;;;;;66.57;24.27;;;;;;;-9.31;89.97;102000.31;5041791;28;20459;-67
2022/12/18 08:09:58;;;;;;;62.07;24.83;;;;;;;-9.21;89.65;101997.16;5043236;28;20504;-67
2022/12/18 08:12:25;;;;;;;48.63;18.77;;;;;;;-9.23;89.38;101981.59;5037513;28;20465;-68
2022/12/18 08:14:51;;;;;;;42.17;13.63;;;;;;;-9.16;89.55;101975.56;5038722;28;20546;-68
2022/12/18 08:17:19;;;;;;;32.63;11.57;;;;;;;-9.03;89.27;101983.00;5040861;28;20910;-68
2022/12/18 08:19:45;;;;;;;51.90;21.07;;;;;;;-9.03;89.37;101990.69;5041320;28;20454;-68
2022/12/18 08:22:11;;;;;;;55.03;24.50;;;;;;;-8.92;89.78;101986.06;5042529;28;20489;-68
2022/12/18 08:24:38;;;;;;;55.23;20.93;;;;;;;-8.86;89.37;101990.97;5037186;28;20552;-68
2022/12/18 08:27:04;;;;;;;71.07;26.60;;;;;;;-8.83;88.98;101987.84;5045885;28;20462;-68
2022/12/18 08:29:50;;;;;;;52.90;20.47;;;;;;;-8.85;88.79;101980.88;5031587;28;20525;-68
2022/12/18 08:32:17;;;;;;;56.43;21.43;;;;;;;-8.87;89.21;101982.38;5041753;28;20560;-68
2022/12/18 08:34:43;;;;;;;66.87;22.90;;;;;;;-8.91;89.15;101976.72;5037821;28;20486;-67
2022/12/18 08:37:09;;;;;;;62.97;24.90;;;;;;;-8.90;89.18;101975.97;5039457;28;21021;-68
2022/12/18 08:39:35;;;;;;;67.37;25.53;;;;;;;-8.73;89.72;101972.78;5040449;28;20537;-67
2022/12/18 08:44:47;;;;;;;61.63;23.30;;;;;;;-8.70;89.97;101960.31;5034928;28;20901;-68
2022/12/18 08:47:13;;;;;;;36.43;11.83;;;;;;;-8.67;89.67;101953.84;5036284;28;20501;-68
2022/12/18 08:49:40;;;;;;;31.07;12.13;;;;;;;-8.53;89.68;101963.13;5041594;28;20453;-67
2022/12/18 08:52:06;;;;;;;30.70;12.63;;;;;;;-8.57;88.90;101967.00;5047441;28;20469;-68
2022/12/18 08:54:32;;;;;;;28.83;11.97;;;;;;;-8.52;89.53;101951.19;5040736;28;21077;-67
2022/12/18 08:56:59;;;;;;;32.40;10.10;;;;;;;-8.48;89.82;101949.16;5037909;28;20493;-68
2022/12/18 08:59:28;;;;;;;37.43;13.37;;;;;;;-8.27;89.80;101961.81;5036439;28;20897;-67
2022/12/18 09:01:55;;;;;;;29.20;11.70;;;;;;;-8.16;89.90;101946.69;5034074;28;20898;-68
2022/12/18 09:04:22;;;;;;;29.20;11.17;;;;;;;-8.01;90.35;101951.84;5040009;28;20492;-68
2022/12/18 09:06:48;;;;;;;29.63;11.20;;;;;;;-7.90;91.17;101964.28;5036348;28;20957;-67
2022/12/18 09:09:15;;;;;;;42.53;20.37;;;;;;;-7.78;91.11;101964.72;5026642;28;20485;-67
2022/12/18 09:11:41;;;;;;;49.23;21.83;;;;;;;-7.60;91.04;101963.28;5042702;28;20544;-68
2022/12/18 09:14:09;;;;;;;36.53;18.73;;;;;;;-7.44;91.15;101965.84;5042457;28;21085;-68
2022/12/18 09:16:35;;;;;;;37.10;18.10;;;;;;;-7.14;90.10;101974.34;5034736;28;20541;-68
2022/12/18 09:19:04;;;;;;;24.23;9.73;;;;;;;-7.05;89.55;101983.06;5041813;28;20961;-68
2022/12/18 09:21:33;;;;;;;23.80;10.63;;;;;;;-7.08;89.75;101969.84;5038129;28;20458;-68
2022/12/18 09:24:02;;;;;;;18.87;7.93;;;;;;;-6.97;89.49;101958.13;5037630;28;20521;-68
2022/12/18 09:26:28;;;;;;;26.20;9.53;;;;;;;-6.87;90.22;101980.63;5036981;28;20516;-68
2022/12/18 09:28:55;;;;;;;26.33;10.00;;;;;;;-6.70;89.95;101980.78;5033843;28;20488;-69
2022/12/18 09:31:23;;;;;;;22.17;9.97;;;;;;;-6.59;90.42;101987.97;5037522;28;20547;-68
2022/12/18 09:33:50;;;;;;;22.20;10.03;;;;;;;-6.40;89.60;101984.03;5037889;28;20464;-69
2022/12/18 09:36:18;;;;;;;23.20;9.90;;;;;;;-6.29;90.05;101977.44;5032179;28;20473;-69
2022/12/18 09:38:45;;;;;;;25.57;10.43;;;;;;;-6.05;89.09;101963.59;5036577;28;20830;-69
2022/12/18 09:41:41;;;;;;;22.30;9.00;;;;;;;-5.78;88.58;101969.00;5038437;28;20465;-69
2022/12/18 09:44:18;;;;;;;23.87;8.43;;;;;;;-5.62;87.06;101973.16;5033880;28;20501;-70
2022/12/18 09:46:52;;;;;;;26.97;10.90;;;;;;;-5.53;88.74;101974.13;5036012;28;20464;-69
2022/12/18 09:49:22;;;;;;;28.93;11.57;;;;;;;-5.41;89.26;101983.09;5034322;28;20553;-69
2022/12/18 09:52:07;;;;;;;28.87;10.43;;;;;;;-5.33;86.47;101974.47;5037827;28;20461;-69
2022/12/18 09:54:44;;;;;;;25.60;10.63;;;;;;;-5.36;86.18;101962.16;5038112;28;20465;-69
2022/12/18 09:57:18;;;;;;;26.90;11.10;;;;;;;-5.40;86.95;101962.59;5026390;28;20869;-69
2022/12/18 09:59:51;;;;;;;25.53;11.70;;;;;;;-5.37;86.26;101968.06;5038763;28;20629;-69
2022/12/18 10:02:21;;;;;;;31.07;12.63;;;;;;;-5.38;86.48;101971.41;5038879;28;20552;-69
2022/12/18 10:05:02;;;;;;;27.90;11.37;;;;;;;-5.33;86.50;101969.31;5039242;28;20465;-69
2022/12/18 10:07:55;;;;;;;28.77;11.43;;;;;;;-5.27;86.28;101982.81;5036940;28;20883;-70
2022/12/18 10:10:30;;;;;;;25.43;10.60;;;;;;;-5.27;85.13;101962.16;5038599;28;20455;-70
2022/12/18 10:13:23;;;;;;;35.73;18.70;;;;;;;-5.19;85.08;101957.81;5037589;28;20560;-70
2022/12/18 10:16:13;;;;;;;25.07;10.90;;;;;;;-5.17;85.32;101949.44;5040681;28;20968;-70
2022/12/18 10:19:19;;;;;;;26.53;11.50;;;;;;;-5.09;85.86;101945.97;5034159;28;20550;-70
2022/12/18 10:22:14;;;;;;;26.50;11.37;;;;;;;-4.97;85.46;101956.59;5037293;28;20506;-70
2022/12/18 10:24:58;;;;;;;24.90;9.87;;;;;;;-4.92;86.90;101950.22;5034062;28;20462;-72
2022/12/18 10:27:26;;;;;;;28.93;12.93;;;;;;;-4.75;86.70;101942.47;5034890;28;20455;-72
2022/12/18 10:29:53;;;;;;;27.23;11.97;;;;;;;-4.66;86.59;101937.28;5032836;28;20521;-74
2022/12/18 10:32:23;;;;;;;32.40;11.90;;;;;;;-4.60;85.69;101943.06;5037044;28;20818;-72
2022/12/18 10:34:51;;;;;;;36.17;18.37;;;;;;;-4.62;86.18;101933.34;5033063;28;20523;-72
2022/12/18 10:37:28;;;;;;;29.43;12.53;;;;;;;-4.53;86.19;101937.72;5036268;28;20446;-72
2022/12/18 10:40:15;;;;;;;31.90;12.67;;;;;;;-4.52;85.57;101926.63;5034637;28;20524;-73
2022/12/18 10:43:03;;;;;;;27.90;11.60;;;;;;;-4.34;83.41;101945.63;5034880;28;20867;-72
2022/12/18 10:45:30;;;;;;;28.50;12.60;;;;;;;-4.47;84.02;101932.22;5034243;28;20463;-73
2022/12/18 10:47:56;;;;;;;27.97;12.53;;;;;;;-4.53;81.73;101941.97;5034463;28;20899;-73
2022/12/18 10:50:29;;;;;;;35.23;13.47;;;;;;;-4.51;83.20;101935.28;5039208;28;21050;-73
2022/12/18 10:53:25;;;;;;;30.80;11.67;;;;;;;-4.36;82.70;101939.38;5022800;28;20965;-73
2022/12/18 10:55:54;;;;;;;28.50;13.00;;;;;;;-4.42;82.32;101943.94;5037419;28;20674;-73
2022/12/18 10:58:34;;;;;;;30.23;13.93;;;;;;;-4.35;82.85;101937.72;5017770;28;20872;-73
2022/12/18 11:01:04;;;;;;;29.33;12.97;;;;;;;-4.24;83.02;101944.81;5019932;28;20830;-73
2022/12/18 11:03:42;;;;;;;38.63;19.17;;;;;;;-4.09;82.26;101946.28;5019506;28;20573;-73
2022/12/18 11:06:12;;;;;;;35.27;13.40;;;;;;;-3.97;83.19;101937.13;5020087;28;21001;-73
2022/12/18 11:08:41;;;;;;;30.90;12.93;;;;;;;-3.83;82.63;101928.09;5026272;28;20492;-73
2022/12/18 11:11:20;;;;;;;34.13;14.23;;;;;;;-3.69;84.96;101913.84;5025312;28;20492;-73
2022/12/18 11:13:59;;;;;;;34.23;13.40;;;;;;;-3.41;85.55;101938.09;5048932;23;20491;-69
2022/12/18 11:16:27;;;;;;;35.00;16.17;;;;;;;-3.35;82.63;101943.81;5046690;28;20499;-66
2022/12/18 11:19:10;;;;;;;40.13;15.43;;;;;;;-3.38;81.17;101933.19;5046337;28;20499;-70
2022/12/18 11:21:41;;;;;;;34.97;15.53;;;;;;;-3.34;81.29;101932.69;5046260;28;20549;-69
2022/12/18 11:24:20;;;;;;;33.83;14.47;;;;;;;-3.39;78.41;101931.38;5042367;28;20657;-69
2022/12/18 11:26:47;;;;;;;34.13;16.47;;;;;;;-3.45;80.33;101941.16;5041437;28;20464;-69
2022/12/18 11:29:23;;;;;;;32.80;15.67;;;;;;;-3.65;77.88;101940.16;5045118;28;20458;-70